Blue Star Delos — SVBF7 — position and weather

sailwx.info

Track history (hours):
 
Tides and Currents Weather Stations Pressure Air Temp Water Temp Dewpoint Dewpoint Depression Visibility Wind Speed Wind Dir Waves Ship Positions

Blue Star Delos

Last reported at 2017-Dec-11 16:48 UTC. Time now 2017-Dec-13 07:05 UTC.
Position N 37°05' E 025°08'.

Length 145 m; draft 5.9 m.

Type: Ship. MMSI: 241087000.

Date/timePositionNaut miles runAvg speedWind from/ knotsBaromVisibWave heightAir tempDewpointWater temp
2017-Dec-11 16:48N 37°05' E 025°08'515.7
2017-Dec-11 16:30N 37°09' E 025°11'918.3
2017-Dec-11 16:00N 37°06' E 025°22'2 4.6
2017-Dec-11 15:30N 37°06' E 025°19'1121.5
2017-Dec-11 15:01N 36°55' E 025°21'1122.6
2017-Dec-11 14:31N 36°44' E 025°24'1122.2
2017-Dec-11 14:00N 36°33' E 025°23'1019.9
2017-Dec-11 13:30N 36°23' E 025°26'2 3.4
2017-Dec-11 13:00N 36°25' E 025°25'1021.0
2017-Dec-11 12:31N 36°35' E 025°23'1122.9
2017-Dec-11 12:01N 36°47' E 025°24'1121.4
2017-Dec-11 11:29N 36°57' E 025°20'918.3
2017-Dec-11 11:01N 37°06' E 025°20'3 6.6
2017-Dec-11 10:31N 37°09' E 025°19'918.0
2017-Dec-11 10:00N 37°05' E 025°08'3 5.9
2017-Dec-11 09:31N 37°07' E 025°05'1223.4
2017-Dec-11 09:01N 37°14' E 024°54'1223.4
2017-Dec-11 08:31N 37°21' E 024°42'1223.3
2017-Dec-11 08:01N 37°28' E 024°30'1223.0
2017-Dec-11 07:31N 37°31' E 024°16'1223.3
2017-Dec-11 07:00N 37°35' E 024°02'1323.1
2017-Dec-11 06:26N 37°39' E 023°46'921.8
2017-Dec-11 06:01N 37°46' E 023°39'1020.2
2017-Dec-11 05:30N 37°56' E 023°38'1 1.4
2017-Dec-11 05:00N 37°57' E 023°38'0 0.0
2017-Dec-11 04:30N 37°57' E 023°38'0 0.0
2017-Dec-11 04:00N 37°57' E 023°38'0 0.0
2017-Dec-11 03:30N 37°57' E 023°38'0 0.0
2017-Dec-11 03:00N 37°57' E 023°38'0 0.0
2017-Dec-11 02:30N 37°57' E 023°38'0 0.0
2017-Dec-11 02:00N 37°57' E 023°38'0 0.0
2017-Dec-11 01:30N 37°57' E 023°38'0 0.0
2017-Dec-11 01:00N 37°57' E 023°38'0 0.0
2017-Dec-11 00:30N 37°57' E 023°38'0 0.0
2017-Dec-11 00:00N 37°57' E 023°38'0 0.0
2017-Dec-10 23:30N 37°57' E 023°38'0 0.0
2017-Dec-10 23:00N 37°57' E 023°38'0 0.0
2017-Dec-10 22:30N 37°57' E 023°38'0 0.0
2017-Dec-10 22:00N 37°57' E 023°38'0 0.0
2017-Dec-10 21:30N 37°57' E 023°38'611.7
2017-Dec-10 21:01N 37°51' E 023°40'1223.2
2017-Dec-10 20:31N 37°41' E 023°47'1723.4
2017-Dec-10 19:47N 37°34' E 024°06'823.2
2017-Dec-10 19:28N 37°31' E 024°15'2323.0
2017-Dec-10 18:28N 37°21' E 024°41'1123.8
2017-Dec-10 18:00N 37°15' E 024°52'1223.8
2017-Dec-10 17:30N 37°08' E 025°04'4 6.9
2017-Dec-10 16:52N 37°05' E 025°09'615.5
2017-Dec-10 16:31N 37°10' E 025°13'816.7
2017-Dec-10 16:00N 37°06' E 025°22'612.0
2017-Dec-10 15:31N 37°01' E 025°18'1223.5
2017-Dec-10 15:01N 36°50' E 025°23'1223.2
2017-Dec-10 14:31N 36°38' E 025°24'1223.1
2017-Dec-10 14:01N 36°27' E 025°22'5 9.6
2017-Dec-10 13:30N 36°23' E 025°26'917.4
2017-Dec-10 13:00N 36°30' E 025°20'1223.2
2017-Dec-10 12:31N 36°42' E 025°16'4 8.9
2017-Dec-10 12:01N 36°46' E 025°14'1223.2
2017-Dec-10 11:31N 36°57' E 025°17'1019.9
2017-Dec-10 11:01N 37°06' E 025°22'611.3
2017-Dec-10 10:31N 37°10' E 025°17'811.0
2017-Dec-10 09:46N 37°05' E 025°09'519.6
2017-Dec-10 09:31N 37°08' E 025°03'1223.6
2017-Dec-10 09:00N 37°15' E 024°51'1224.0
2017-Dec-10 08:31N 37°22' E 024°39'1223.9
2017-Dec-10 08:01N 37°29' E 024°27'1223.6
2017-Dec-10 07:31N 37°29' E 024°12'1223.0
2017-Dec-10 07:01N 37°30' E 023°58'1522.5
2017-Dec-10 06:20N 37°39' E 023°43'823.1
2017-Dec-10 06:01N 37°46' E 023°39'1020.0
2017-Dec-10 05:30N 37°56' E 023°38'1 1.4
2017-Dec-10 05:00N 37°57' E 023°38'0 0.0
2017-Dec-10 04:30N 37°57' E 023°38'0 0.0
2017-Dec-10 04:00N 37°57' E 023°38'0 0.0
2017-Dec-10 03:31N 37°57' E 023°38'0 0.0
2017-Dec-10 03:01N 37°57' E 023°38'0 0.0
2017-Dec-10 02:30N 37°57' E 023°38'0 0.0
2017-Dec-10 02:01N 37°57' E 023°38'0 0.0
2017-Dec-10 01:31N 37°57' E 023°38'0 0.0
2017-Dec-10 01:00N 37°57' E 023°38'0 0.0
2017-Dec-10 00:30N 37°57' E 023°38'0 0.0
2017-Dec-10 00:00N 37°57' E 023°38'0 0.0
2017-Dec-09 23:31N 37°57' E 023°38'0 0.0
2017-Dec-09 23:01N 37°57' E 023°38'0 0.0
2017-Dec-09 22:30N 37°57' E 023°38'0 0.0
2017-Dec-09 22:00N 37°57' E 023°38'1 1.6
2017-Dec-09 21:31N 37°56' E 023°38'1020.9
2017-Dec-09 21:01N 37°47' E 023°42'1224.1
2017-Dec-09 20:30N 37°37' E 023°51'1725.4
2017-Dec-09 19:51N 37°29' E 024°10'513.7
2017-Dec-09 19:31N 37°29' E 024°16'1121.4
2017-Dec-09 18:59N 37°27' E 024°30'1123.3
2017-Dec-09 18:31N 37°20' E 024°40'1223.2
2017-Dec-09 18:01N 37°14' E 024°53'1223.4
2017-Dec-09 17:31N 37°07' E 025°05'4 5.5
2017-Dec-09 16:50N 37°05' E 025°09'514.1
2017-Dec-09 16:30N 37°09' E 025°12'918.2
2017-Dec-09 16:00N 37°06' E 025°22'3 5.8
2017-Dec-09 15:31N 37°05' E 025°19'1121.8
2017-Dec-09 15:01N 36°54' E 025°21'1122.9
2017-Dec-09 14:30N 36°43' E 025°25'1122.7
2017-Dec-09 14:01N 36°32' E 025°22'918.0
2017-Dec-09 13:30N 36°23' E 025°26'1 2.6
2017-Dec-09 13:01N 36°24' E 025°25'1020.4
2017-Dec-09 12:31N 36°34' E 025°23'1122.5
2017-Dec-09 12:01N 36°46' E 025°24'1123.0
2017-Dec-09 11:31N 36°56' E 025°20'1020.0
2017-Dec-09 11:00N 37°06' E 025°21'4 8.1
2017-Dec-09 10:30N 37°10' E 025°18'917.5
2017-Dec-09 10:00N 37°05' E 025°08'3 6.4
2017-Dec-09 09:31N 37°07' E 025°05'1223.2
2017-Dec-09 09:01N 37°14' E 024°53'1223.4
2017-Dec-09 08:31N 37°21' E 024°41'1223.2
2017-Dec-09 08:00N 37°28' E 024°30'1123.0
2017-Dec-09 07:31N 37°31' E 024°16'1223.2
2017-Dec-09 07:01N 37°35' E 024°02'1323.0
2017-Dec-09 06:26N 37°39' E 023°46'922.0
2017-Dec-09 06:01N 37°46' E 023°39'1020.1
2017-Dec-09 05:30N 37°56' E 023°38'1 1.4
2017-Dec-09 05:00N 37°57' E 023°38'0 0.0
2017-Dec-09 04:30N 37°57' E 023°38'0 0.0
2017-Dec-09 04:00N 37°57' E 023°38'0 0.0
2017-Dec-09 03:30N 37°57' E 023°38'0 0.0
2017-Dec-09 03:00N 37°57' E 023°38'0 0.0
2017-Dec-09 02:30N 37°57' E 023°38'0 0.0
2017-Dec-09 02:00N 37°57' E 023°38'0 0.0
2017-Dec-09 01:30N 37°57' E 023°38'0 0.0
2017-Dec-09 01:00N 37°57' E 023°38'0 0.0
2017-Dec-09 00:30N 37°57' E 023°38'0 0.0
2017-Dec-09 00:00N 37°57' E 023°38'0 0.0
2017-Dec-08 23:30N 37°57' E 023°38'0 0.0
2017-Dec-08 23:00N 37°57' E 023°38'0 0.0
2017-Dec-08 22:30N 37°57' E 023°38'0 0.0
2017-Dec-08 22:00N 37°57' E 023°38'0 0.1
2017-Dec-08 21:30N 37°57' E 023°38'815.3
2017-Dec-08 21:01N 37°49' E 023°40'1223.0
2017-Dec-08 20:30N 37°40' E 023°49'1923.7
2017-Dec-08 19:42N 37°29' E 024°09'524.1
2017-Dec-08 19:31N 37°30' E 024°14'1422.0
2017-Dec-08 18:51N 37°25' E 024°32'823.6
2017-Dec-08 18:31N 37°21' E 024°40'1223.6
2017-Dec-08 18:00N 37°14' E 024°53'1223.5
2017-Dec-08 17:31N 37°07' E 025°05'4 5.7
2017-Dec-08 16:51N 37°05' E 025°08'616.0
2017-Dec-08 16:30N 37°10' E 025°13'816.9
2017-Dec-08 16:01N 37°06' E 025°22'510.9
2017-Dec-08 15:30N 37°02' E 025°18'1223.7
2017-Dec-08 15:00N 36°51' E 025°22'1223.3
2017-Dec-08 14:31N 36°39' E 025°24'1223.4
2017-Dec-08 14:01N 36°27' E 025°22'510.6
2017-Dec-08 13:30N 36°23' E 025°26'815.2
2017-Dec-08 13:01N 36°29' E 025°20'1223.5
2017-Dec-08 12:31N 36°41' E 025°16'4 8.5
2017-Dec-08 12:01N 36°45' E 025°14'1223.4
2017-Dec-08 11:31N 36°56' E 025°16'1121.8
2017-Dec-08 11:00N 37°06' E 025°21'5 9.0
2017-Dec-08 10:31N 37°10' E 025°18'917.4
2017-Dec-08 10:00N 37°05' E 025°08'3 7.0
2017-Dec-08 09:31N 37°07' E 025°05'1223.4
2017-Dec-08 09:01N 37°14' E 024°53'1223.3
2017-Dec-08 08:31N 37°21' E 024°41'1223.1
2017-Dec-08 08:01N 37°28' E 024°30'1122.7
2017-Dec-08 07:30N 37°31' E 024°16'1223.1
2017-Dec-08 07:01N 37°34' E 024°02'1223.4
2017-Dec-08 06:30N 37°38' E 023°48'1121.9
2017-Dec-08 06:01N 37°46' E 023°39'1019.9
2017-Dec-08 05:30N 37°56' E 023°38'1 1.3
2017-Dec-08 05:00N 37°57' E 023°38'0 0.0
2017-Dec-08 04:30N 37°57' E 023°38'0 0.0
2017-Dec-08 04:00N 37°57' E 023°38'0 0.0
2017-Dec-08 03:30N 37°57' E 023°38'0 0.0
2017-Dec-08 03:00N 37°57' E 023°38'0 0.0
2017-Dec-08 02:30N 37°57' E 023°38'0 0.0
2017-Dec-08 02:00N 37°57' E 023°38'0 0.0
2017-Dec-08 01:30N 37°57' E 023°38'0 0.0
2017-Dec-08 01:00N 37°57' E 023°38'0 0.0
2017-Dec-08 00:30N 37°57' E 023°38'0 0.0
2017-Dec-08 00:00N 37°57' E 023°38'0 0.0
2017-Dec-07 23:30N 37°57' E 023°38'0 0.0
2017-Dec-07 23:00N 37°57' E 023°38'0 0.0
2017-Dec-07 22:30N 37°57' E 023°38'0 0.0
2017-Dec-07 22:01N 37°57' E 023°38'0 0.1
2017-Dec-07 21:30N 37°57' E 023°38'611.7
2017-Dec-07 21:01N 37°51' E 023°39'1223.1
2017-Dec-07 20:30N 37°41' E 023°46'1423.4
2017-Dec-07 19:54N 37°35' E 024°03'1023.8
2017-Dec-07 19:30N 37°32' E 024°14'2323.3
2017-Dec-07 18:30N 37°21' E 024°40'1223.7
2017-Dec-07 18:01N 37°15' E 024°52'1223.4
2017-Dec-07 17:31N 37°08' E 025°04'4 7.0
2017-Dec-07 16:54N 37°05' E 025°08'716.5
2017-Dec-07 16:30N 37°10' E 025°14'715.0
2017-Dec-07 16:01N 37°06' E 025°22'612.6
2017-Dec-07 15:30N 37°01' E 025°18'1223.6
2017-Dec-07 15:01N 36°49' E 025°22'1223.0
2017-Dec-07 14:30N 36°38' E 025°24'1122.8
2017-Dec-07 14:01N 36°27' E 025°22'4 8.9
2017-Dec-07 13:31N 36°23' E 025°26'510.9
2017-Dec-07 13:01N 36°27' E 025°21'1223.5
2017-Dec-07 12:31N 36°39' E 025°17'510.6
2017-Dec-07 12:01N 36°43' E 025°14'1223.5
2017-Dec-07 11:31N 36°55' E 025°16'1223.2
2017-Dec-07 11:01N 37°06' E 025°20'3 6.7
2017-Dec-07 10:31N 37°09' E 025°19'1019.1
2017-Dec-07 10:00N 37°05' E 025°08'3 5.9
2017-Dec-07 09:30N 37°07' E 025°05'1223.4
2017-Dec-07 09:01N 37°14' E 024°53'1223.1
2017-Dec-07 08:31N 37°21' E 024°41'1223.3
2017-Dec-07 08:01N 37°28' E 024°30'1222.7
2017-Dec-07 07:30N 37°31' E 024°15'1123.1
2017-Dec-07 07:01N 37°35' E 024°02'1323.1
2017-Dec-07 06:27N 37°38' E 023°46'1022.1
2017-Dec-07 06:01N 37°46' E 023°39'1020.3
2017-Dec-07 05:30N 37°56' E 023°38'1 1.4
2017-Dec-07 05:00N 37°57' E 023°38'0 0.0
2017-Dec-07 04:30N 37°57' E 023°38'0 0.0
2017-Dec-07 04:00N 37°57' E 023°38'0 0.0
2017-Dec-07 03:30N 37°57' E 023°38'0 0.0
2017-Dec-07 03:00N 37°57' E 023°38'0 0.0
2017-Dec-07 02:30N 37°57' E 023°38'0 0.0
2017-Dec-07 02:00N 37°57' E 023°38'0 0.0
2017-Dec-07 01:30N 37°57' E 023°38'0 0.0
2017-Dec-07 01:00N 37°57' E 023°38'0 0.0
2017-Dec-07 00:30N 37°57' E 023°38'0 0.0
2017-Dec-07 00:00N 37°57' E 023°38'0 0.0
2017-Dec-06 23:30N 37°57' E 023°38'0 0.0
2017-Dec-06 23:00N 37°57' E 023°38'0 0.0
2017-Dec-06 22:30N 37°57' E 023°38'0 0.0
2017-Dec-06 22:00N 37°57' E 023°38'0 0.4
2017-Dec-06 21:31N 37°57' E 023°38'714.5
2017-Dec-06 21:01N 37°50' E 023°40'  
2017-Dec-04 10:31N 37°10' E 025°18'1018.7
2017-Dec-04 10:00N 37°05' E 025°08'3 5.5
2017-Dec-04 09:30N 37°07' E 025°05'1223.5
2017-Dec-04 09:00N 37°14' E 024°54'1223.4
2017-Dec-04 08:30N 37°21' E 024°42'1223.4
2017-Dec-04 08:01N 37°28' E 024°30'1122.6
2017-Dec-04 07:30N 37°30' E 024°16'1223.2
2017-Dec-04 07:00N 37°35' E 024°02'1323.3
2017-Dec-04 06:26N 37°39' E 023°46'921.7
2017-Dec-04 06:00N 37°46' E 023°39'1020.2
2017-Dec-04 05:30N 37°56' E 023°38'1 1.5
2017-Dec-04 05:00N 37°57' E 023°38'0 0.0
2017-Dec-04 04:30N 37°57' E 023°38'0 0.0
2017-Dec-04 04:00N 37°57' E 023°38'0 0.0
2017-Dec-04 03:30N 37°57' E 023°38'0 0.0
2017-Dec-04 03:00N 37°57' E 023°38'0 0.0
2017-Dec-04 02:30N 37°57' E 023°38'0 0.0
2017-Dec-04 02:00N 37°57' E 023°38'0 0.0
2017-Dec-04 01:30N 37°57' E 023°38'0 0.0
2017-Dec-04 01:00N 37°57' E 023°38'0 0.0
2017-Dec-04 00:30N 37°57' E 023°38'0 0.0
2017-Dec-04 00:00N 37°57' E 023°38'0 0.0
2017-Dec-03 23:30N 37°57' E 023°38'0 0.0
2017-Dec-03 23:00N 37°57' E 023°38'0 0.0
2017-Dec-03 22:30N 37°57' E 023°38'0 0.0
2017-Dec-03 22:00N 37°57' E 023°38'1 1.1
2017-Dec-03 21:30N 37°56' E 023°38'918.8
2017-Dec-03 21:01N 37°47' E 023°41'1223.0
2017-Dec-03 20:30N 37°38' E 023°50'1521.5
2017-Dec-03 19:48N 37°30' E 024°06'723.2
2017-Dec-03 19:30N 37°30' E 024°14'1322.6
2017-Dec-03 18:57N 37°28' E 024°30'1123.5
2017-Dec-03 18:30N 37°22' E 024°41'1223.3
2017-Dec-03 18:00N 37°15' E 024°53'1223.2
2017-Dec-03 17:31N 37°08' E 025°04'4 6.2
2017-Dec-03 16:51N 37°05' E 025°08'516.0
2017-Dec-03 16:30N 37°10' E 025°12'917.0
2017-Dec-03 16:00N 37°06' E 025°22'5 9.1
2017-Dec-03 15:30N 37°03' E 025°18'1122.7
2017-Dec-03 15:01N 36°52' E 025°22'1122.7
2017-Dec-03 14:30N 36°41' E 025°25'1122.9
2017-Dec-03 14:01N 36°30' E 025°22'714.8
2017-Dec-03 13:30N 36°23' E 025°26'612.7
2017-Dec-03 13:01N 36°28' E 025°21'1223.6
2017-Dec-03 12:31N 36°39' E 025°17'5 9.9
2017-Dec-03 12:01N 36°44' E 025°14'1223.6
2017-Dec-03 11:31N 36°55' E 025°16'1122.5
2017-Dec-03 11:01N 37°06' E 025°20'4 8.1
2017-Dec-03 10:31N 37°10' E 025°18'917.8
2017-Dec-03 10:00N 37°05' E 025°08'510.7
2017-Dec-03 09:31N 37°08' E 025°03'1223.7
2017-Dec-03 09:01N 37°15' E 024°51'1223.2
2017-Dec-03 08:31N 37°22' E 024°39'1223.1
2017-Dec-03 08:01N 37°29' E 024°27'1122.9
2017-Dec-03 07:31N 37°29' E 024°13'1223.3
2017-Dec-03 06:59N 37°31' E 023°58'1522.9
2017-Dec-03 06:21N 37°40' E 023°43'822.4
2017-Dec-03 06:01N 37°47' E 023°39'1019.8
2017-Dec-03 05:30N 37°56' E 023°38'1 1.4
2017-Dec-03 05:00N 37°57' E 023°38'0 0.0
2017-Dec-03 04:30N 37°57' E 023°38'0 0.0
2017-Dec-03 04:00N 37°57' E 023°38'0 0.0
2017-Dec-03 03:30N 37°57' E 023°38'0 0.0
2017-Dec-03 03:00N 37°57' E 023°38'0 0.0
2017-Dec-03 02:30N 37°57' E 023°38'0 0.0
2017-Dec-03 02:00N 37°57' E 023°38'0 0.0
2017-Dec-03 01:30N 37°57' E 023°38'0 0.0
2017-Dec-03 01:00N 37°57' E 023°38'0 0.0
2017-Dec-03 00:30N 37°57' E 023°38'0 0.0
2017-Dec-03 00:00N 37°57' E 023°38'0 0.0
2017-Dec-02 23:30N 37°57' E 023°38'0 0.0
2017-Dec-02 23:00N 37°57' E 023°38'0 0.0
2017-Dec-02 22:30N 37°57' E 023°38'0 0.0
2017-Dec-02 22:00N 37°57' E 023°38'0 0.5
2017-Dec-02 21:31N 37°57' E 023°38'917.2
2017-Dec-02 21:01N 37°48' E 023°41'1223.5
2017-Dec-02 20:30N 37°39' E 023°50'1223.5
2017-Dec-02 20:00N 37°29' E 023°59'1223.4
2017-Dec-02 19:31N 37°30' E 024°14'1223.2
2017-Dec-02 19:00N 37°29' E 024°28'1223.8
2017-Dec-02 18:30N 37°22' E 024°40'1223.7
2017-Dec-02 18:01N 37°15' E 024°52'1223.3
2017-Dec-02 17:31N 37°08' E 025°04'5 7.4
2017-Dec-02 16:52N 37°05' E 025°09'515.0
2017-Dec-02 16:30N 37°10' E 025°12'917.1
2017-Dec-02 16:00N 37°06' E 025°22'4 7.8
2017-Dec-02 15:30N 37°04' E 025°18'1122.6
2017-Dec-02 15:01N 36°53' E 025°16'1122.2
2017-Dec-02 14:31N 36°42' E 025°14'1122.5
2017-Dec-02 14:01N 36°31' E 025°20'1019.1
2017-Dec-02 13:30N 36°23' E 025°26'4 8.2
2017-Dec-02 13:01N 36°26' E 025°23'1122.9
2017-Dec-02 12:31N 36°37' E 025°16'1122.2
2017-Dec-02 12:01N 36°48' E 025°14'1123.0
2017-Dec-02 11:31N 36°59' E 025°17'816.8
2017-Dec-02 11:01N 37°06' E 025°22'612.2
2017-Dec-02 10:31N 37°10' E 025°16'811.5
2017-Dec-02 09:50N 37°05' E 025°09'720.8
2017-Dec-02 09:31N 37°09' E 025°02'1223.2
2017-Dec-02 09:01N 37°16' E 024°50'1122.8
2017-Dec-02 08:31N 37°23' E 024°39'1122.8
2017-Dec-02 08:01N 37°29' E 024°27'1122.9
2017-Dec-02 07:31N 37°29' E 024°12'1122.9
2017-Dec-02 07:00N 37°31' E 023°58'1222.6
2017-Dec-02 06:30N 37°38' E 023°47'1122.3
2017-Dec-02 06:01N 37°47' E 023°39'1019.7
2017-Dec-02 05:30N 37°56' E 023°38'1 1.3
2017-Dec-02 05:00N 37°57' E 023°38'0 0.0
2017-Dec-02 04:30N 37°57' E 023°38'0 0.0
2017-Dec-02 04:00N 37°57' E 023°38'0 0.0
2017-Dec-02 03:30N 37°57' E 023°38'0 0.0
2017-Dec-02 03:00N 37°57' E 023°38'0 0.0
2017-Dec-02 02:30N 37°57' E 023°38'0 0.0
2017-Dec-02 02:00N 37°57' E 023°38'0 0.0
2017-Dec-02 01:30N 37°57' E 023°38'0 0.0
2017-Dec-02 01:00N 37°57' E 023°38'0 0.0
2017-Dec-02 00:30N 37°57' E 023°38'0 0.0
2017-Dec-02 00:00N 37°57' E 023°38'0 0.0
2017-Dec-01 23:30N 37°57' E 023°38'0 0.0
2017-Dec-01 23:00N 37°57' E 023°38'0 0.0
2017-Dec-01 22:30N 37°57' E 023°38'0 0.0
2017-Dec-01 22:00N 37°57' E 023°38'1 1.4
2017-Dec-01 21:31N 37°56' E 023°38'1020.2
2017-Dec-01 21:01N 37°47' E 023°42'1222.9
2017-Dec-01 20:30N 37°38' E 023°52'1223.0
2017-Dec-01 20:00N 37°30' E 024°02'1122.9
2017-Dec-01 19:30N 37°29' E 024°16'2221.9
2017-Dec-01 18:29N 37°20' E 024°42'1123.5
2017-Dec-01 18:01N 37°14' E 024°53'1223.2
2017-Dec-01 17:30N 37°07' E 025°05'3 6.0
2017-Dec-01 17:00N 37°05' E 025°08'  
Track history (hours):
 
Tides and Currents Weather Stations Pressure Air Temp Water Temp Dewpoint Dewpoint Depression Visibility Wind Speed Wind Dir Waves Ship Positions

Blue Star Delos

Last reported at 2017-Dec-11 16:48 UTC. Time now 2017-Dec-13 07:05 UTC.
Position N 37°05' E 025°08'.

Length 145 m; draft 5.9 m.

Type: Ship. MMSI: 241087000.

Date/timePositionNaut miles runAvg speedWind from/ knotsBaromVisibWave heightAir tempDewpointWater temp
2017-Dec-11 16:48N 37°05' E 025°08'515.7
2017-Dec-11 16:30N 37°09' E 025°11'918.3
2017-Dec-11 16:00N 37°06' E 025°22'2 4.6
2017-Dec-11 15:30N 37°06' E 025°19'1121.5
2017-Dec-11 15:01N 36°55' E 025°21'1122.6
2017-Dec-11 14:31N 36°44' E 025°24'1122.2
2017-Dec-11 14:00N 36°33' E 025°23'1019.9
2017-Dec-11 13:30N 36°23' E 025°26'2 3.4
2017-Dec-11 13:00N 36°25' E 025°25'1021.0
2017-Dec-11 12:31N 36°35' E 025°23'1122.9
2017-Dec-11 12:01N 36°47' E 025°24'1121.4
2017-Dec-11 11:29N 36°57' E 025°20'918.3
2017-Dec-11 11:01N 37°06' E 025°20'3 6.6
2017-Dec-11 10:31N 37°09' E 025°19'918.0
2017-Dec-11 10:00N 37°05' E 025°08'3 5.9
2017-Dec-11 09:31N 37°07' E 025°05'1223.4
2017-Dec-11 09:01N 37°14' E 024°54'1223.4
2017-Dec-11 08:31N 37°21' E 024°42'1223.3
2017-Dec-11 08:01N 37°28' E 024°30'1223.0
2017-Dec-11 07:31N 37°31' E 024°16'1223.3
2017-Dec-11 07:00N 37°35' E 024°02'1323.1
2017-Dec-11 06:26N 37°39' E 023°46'921.8
2017-Dec-11 06:01N 37°46' E 023°39'1020.2
2017-Dec-11 05:30N 37°56' E 023°38'1 1.4
2017-Dec-11 05:00N 37°57' E 023°38'0 0.0
2017-Dec-11 04:30N 37°57' E 023°38'0 0.0
2017-Dec-11 04:00N 37°57' E 023°38'0 0.0
2017-Dec-11 03:30N 37°57' E 023°38'0 0.0
2017-Dec-11 03:00N 37°57' E 023°38'0 0.0
2017-Dec-11 02:30N 37°57' E 023°38'0 0.0
2017-Dec-11 02:00N 37°57' E 023°38'0 0.0
2017-Dec-11 01:30N 37°57' E 023°38'0 0.0
2017-Dec-11 01:00N 37°57' E 023°38'0 0.0
2017-Dec-11 00:30N 37°57' E 023°38'0 0.0
2017-Dec-11 00:00N 37°57' E 023°38'0 0.0
2017-Dec-10 23:30N 37°57' E 023°38'0 0.0
2017-Dec-10 23:00N 37°57' E 023°38'0 0.0
2017-Dec-10 22:30N 37°57' E 023°38'0 0.0
2017-Dec-10 22:00N 37°57' E 023°38'0 0.0
2017-Dec-10 21:30N 37°57' E 023°38'611.7
2017-Dec-10 21:01N 37°51' E 023°40'1223.2
2017-Dec-10 20:31N 37°41' E 023°47'1723.4
2017-Dec-10 19:47N 37°34' E 024°06'823.2
2017-Dec-10 19:28N 37°31' E 024°15'2323.0
2017-Dec-10 18:28N 37°21' E 024°41'1123.8
2017-Dec-10 18:00N 37°15' E 024°52'1223.8
2017-Dec-10 17:30N 37°08' E 025°04'4 6.9
2017-Dec-10 16:52N 37°05' E 025°09'615.5
2017-Dec-10 16:31N 37°10' E 025°13'816.7
2017-Dec-10 16:00N 37°06' E 025°22'612.0
2017-Dec-10 15:31N 37°01' E 025°18'1223.5
2017-Dec-10 15:01N 36°50' E 025°23'1223.2
2017-Dec-10 14:31N 36°38' E 025°24'1223.1
2017-Dec-10 14:01N 36°27' E 025°22'5 9.6
2017-Dec-10 13:30N 36°23' E 025°26'917.4
2017-Dec-10 13:00N 36°30' E 025°20'1223.2
2017-Dec-10 12:31N 36°42' E 025°16'4 8.9
2017-Dec-10 12:01N 36°46' E 025°14'1223.2
2017-Dec-10 11:31N 36°57' E 025°17'1019.9
2017-Dec-10 11:01N 37°06' E 025°22'611.3
2017-Dec-10 10:31N 37°10' E 025°17'811.0
2017-Dec-10 09:46N 37°05' E 025°09'519.6
2017-Dec-10 09:31N 37°08' E 025°03'1223.6
2017-Dec-10 09:00N 37°15' E 024°51'1224.0
2017-Dec-10 08:31N 37°22' E 024°39'1223.9
2017-Dec-10 08:01N 37°29' E 024°27'1223.6
2017-Dec-10 07:31N 37°29' E 024°12'1223.0
2017-Dec-10 07:01N 37°30' E 023°58'1522.5
2017-Dec-10 06:20N 37°39' E 023°43'823.1
2017-Dec-10 06:01N 37°46' E 023°39'1020.0
2017-Dec-10 05:30N 37°56' E 023°38'1 1.4
2017-Dec-10 05:00N 37°57' E 023°38'0 0.0
2017-Dec-10 04:30N 37°57' E 023°38'0 0.0
2017-Dec-10 04:00N 37°57' E 023°38'0 0.0
2017-Dec-10 03:31N 37°57' E 023°38'0 0.0
2017-Dec-10 03:01N 37°57' E 023°38'0 0.0
2017-Dec-10 02:30N 37°57' E 023°38'0 0.0
2017-Dec-10 02:01N 37°57' E 023°38'0 0.0
2017-Dec-10 01:31N 37°57' E 023°38'0 0.0
2017-Dec-10 01:00N 37°57' E 023°38'0 0.0
2017-Dec-10 00:30N 37°57' E 023°38'0 0.0
2017-Dec-10 00:00N 37°57' E 023°38'0 0.0
2017-Dec-09 23:31N 37°57' E 023°38'0 0.0
2017-Dec-09 23:01N 37°57' E 023°38'0 0.0
2017-Dec-09 22:30N 37°57' E 023°38'0 0.0
2017-Dec-09 22:00N 37°57' E 023°38'1 1.6
2017-Dec-09 21:31N 37°56' E 023°38'1020.9
2017-Dec-09 21:01N 37°47' E 023°42'1224.1
2017-Dec-09 20:30N 37°37' E 023°51'1725.4
2017-Dec-09 19:51N 37°29' E 024°10'513.7
2017-Dec-09 19:31N 37°29' E 024°16'1121.4
2017-Dec-09 18:59N 37°27' E 024°30'1123.3
2017-Dec-09 18:31N 37°20' E 024°40'1223.2
2017-Dec-09 18:01N 37°14' E 024°53'1223.4
2017-Dec-09 17:31N 37°07' E 025°05'4 5.5
2017-Dec-09 16:50N 37°05' E 025°09'514.1
2017-Dec-09 16:30N 37°09' E 025°12'918.2
2017-Dec-09 16:00N 37°06' E 025°22'3 5.8
2017-Dec-09 15:31N 37°05' E 025°19'1121.8
2017-Dec-09 15:01N 36°54' E 025°21'1122.9
2017-Dec-09 14:30N 36°43' E 025°25'1122.7
2017-Dec-09 14:01N 36°32' E 025°22'918.0
2017-Dec-09 13:30N 36°23' E 025°26'1 2.6
2017-Dec-09 13:01N 36°24' E 025°25'1020.4
2017-Dec-09 12:31N 36°34' E 025°23'1122.5
2017-Dec-09 12:01N 36°46' E 025°24'1123.0
2017-Dec-09 11:31N 36°56' E 025°20'1020.0
2017-Dec-09 11:00N 37°06' E 025°21'4 8.1
2017-Dec-09 10:30N 37°10' E 025°18'917.5
2017-Dec-09 10:00N 37°05' E 025°08'3 6.4
2017-Dec-09 09:31N 37°07' E 025°05'1223.2
2017-Dec-09 09:01N 37°14' E 024°53'1223.4
2017-Dec-09 08:31N 37°21' E 024°41'1223.2
2017-Dec-09 08:00N 37°28' E 024°30'1123.0
2017-Dec-09 07:31N 37°31' E 024°16'1223.2
2017-Dec-09 07:01N 37°35' E 024°02'1323.0
2017-Dec-09 06:26N 37°39' E 023°46'922.0
2017-Dec-09 06:01N 37°46' E 023°39'1020.1
2017-Dec-09 05:30N 37°56' E 023°38'1 1.4
2017-Dec-09 05:00N 37°57' E 023°38'0 0.0
2017-Dec-09 04:30N 37°57' E 023°38'0 0.0
2017-Dec-09 04:00N 37°57' E 023°38'0 0.0
2017-Dec-09 03:30N 37°57' E 023°38'0 0.0
2017-Dec-09 03:00N 37°57' E 023°38'0 0.0
2017-Dec-09 02:30N 37°57' E 023°38'0 0.0
2017-Dec-09 02:00N 37°57' E 023°38'0 0.0
2017-Dec-09 01:30N 37°57' E 023°38'0 0.0
2017-Dec-09 01:00N 37°57' E 023°38'0 0.0
2017-Dec-09 00:30N 37°57' E 023°38'0 0.0
2017-Dec-09 00:00N 37°57' E 023°38'0 0.0
2017-Dec-08 23:30N 37°57' E 023°38'0 0.0
2017-Dec-08 23:00N 37°57' E 023°38'0 0.0
2017-Dec-08 22:30N 37°57' E 023°38'0 0.0
2017-Dec-08 22:00N 37°57' E 023°38'0 0.1
2017-Dec-08 21:30N 37°57' E 023°38'815.3
2017-Dec-08 21:01N 37°49' E 023°40'1223.0
2017-Dec-08 20:30N 37°40' E 023°49'1923.7
2017-Dec-08 19:42N 37°29' E 024°09'524.1
2017-Dec-08 19:31N 37°30' E 024°14'1422.0
2017-Dec-08 18:51N 37°25' E 024°32'823.6
2017-Dec-08 18:31N 37°21' E 024°40'1223.6
2017-Dec-08 18:00N 37°14' E 024°53'1223.5
2017-Dec-08 17:31N 37°07' E 025°05'4 5.7
2017-Dec-08 16:51N 37°05' E 025°08'616.0
2017-Dec-08 16:30N 37°10' E 025°13'816.9
2017-Dec-08 16:01N 37°06' E 025°22'510.9
2017-Dec-08 15:30N 37°02' E 025°18'1223.7
2017-Dec-08 15:00N 36°51' E 025°22'1223.3
2017-Dec-08 14:31N 36°39' E 025°24'1223.4
2017-Dec-08 14:01N 36°27' E 025°22'510.6
2017-Dec-08 13:30N 36°23' E 025°26'815.2
2017-Dec-08 13:01N 36°29' E 025°20'1223.5
2017-Dec-08 12:31N 36°41' E 025°16'4 8.5
2017-Dec-08 12:01N 36°45' E 025°14'1223.4
2017-Dec-08 11:31N 36°56' E 025°16'1121.8
2017-Dec-08 11:00N 37°06' E 025°21'5 9.0
2017-Dec-08 10:31N 37°10' E 025°18'917.4
2017-Dec-08 10:00N 37°05' E 025°08'3 7.0
2017-Dec-08 09:31N 37°07' E 025°05'1223.4
2017-Dec-08 09:01N 37°14' E 024°53'1223.3
2017-Dec-08 08:31N 37°21' E 024°41'1223.1
2017-Dec-08 08:01N 37°28' E 024°30'1122.7
2017-Dec-08 07:30N 37°31' E 024°16'1223.1
2017-Dec-08 07:01N 37°34' E 024°02'1223.4
2017-Dec-08 06:30N 37°38' E 023°48'1121.9
2017-Dec-08 06:01N 37°46' E 023°39'1019.9
2017-Dec-08 05:30N 37°56' E 023°38'1 1.3
2017-Dec-08 05:00N 37°57' E 023°38'0 0.0
2017-Dec-08 04:30N 37°57' E 023°38'0 0.0
2017-Dec-08 04:00N 37°57' E 023°38'0 0.0
2017-Dec-08 03:30N 37°57' E 023°38'0 0.0
2017-Dec-08 03:00N 37°57' E 023°38'0 0.0
2017-Dec-08 02:30N 37°57' E 023°38'0 0.0
2017-Dec-08 02:00N 37°57' E 023°38'0 0.0
2017-Dec-08 01:30N 37°57' E 023°38'0 0.0
2017-Dec-08 01:00N 37°57' E 023°38'0 0.0
2017-Dec-08 00:30N 37°57' E 023°38'0 0.0
2017-Dec-08 00:00N 37°57' E 023°38'0 0.0
2017-Dec-07 23:30N 37°57' E 023°38'0 0.0
2017-Dec-07 23:00N 37°57' E 023°38'0 0.0
2017-Dec-07 22:30N 37°57' E 023°38'0 0.0
2017-Dec-07 22:01N 37°57' E 023°38'0 0.1
2017-Dec-07 21:30N 37°57' E 023°38'611.7
2017-Dec-07 21:01N 37°51' E 023°39'1223.1
2017-Dec-07 20:30N 37°41' E 023°46'1423.4
2017-Dec-07 19:54N 37°35' E 024°03'1023.8
2017-Dec-07 19:30N 37°32' E 024°14'2323.3
2017-Dec-07 18:30N 37°21' E 024°40'1223.7
2017-Dec-07 18:01N 37°15' E 024°52'1223.4
2017-Dec-07 17:31N 37°08' E 025°04'4 7.0
2017-Dec-07 16:54N 37°05' E 025°08'716.5
2017-Dec-07 16:30N 37°10' E 025°14'715.0
2017-Dec-07 16:01N 37°06' E 025°22'612.6
2017-Dec-07 15:30N 37°01' E 025°18'1223.6
2017-Dec-07 15:01N 36°49' E 025°22'1223.0
2017-Dec-07 14:30N 36°38' E 025°24'1122.8
2017-Dec-07 14:01N 36°27' E 025°22'4 8.9
2017-Dec-07 13:31N 36°23' E 025°26'510.9
2017-Dec-07 13:01N 36°27' E 025°21'1223.5
2017-Dec-07 12:31N 36°39' E 025°17'510.6
2017-Dec-07 12:01N 36°43' E 025°14'1223.5
2017-Dec-07 11:31N 36°55' E 025°16'1223.2
2017-Dec-07 11:01N 37°06' E 025°20'3 6.7
2017-Dec-07 10:31N 37°09' E 025°19'1019.1
2017-Dec-07 10:00N 37°05' E 025°08'3 5.9
2017-Dec-07 09:30N 37°07' E 025°05'1223.4
2017-Dec-07 09:01N 37°14' E 024°53'1223.1
2017-Dec-07 08:31N 37°21' E 024°41'1223.3
2017-Dec-07 08:01N 37°28' E 024°30'1222.7
2017-Dec-07 07:30N 37°31' E 024°15'1123.1
2017-Dec-07 07:01N 37°35' E 024°02'1323.1
2017-Dec-07 06:27N 37°38' E 023°46'1022.1
2017-Dec-07 06:01N 37°46' E 023°39'1020.3
2017-Dec-07 05:30N 37°56' E 023°38'1 1.4
2017-Dec-07 05:00N 37°57' E 023°38'0 0.0
2017-Dec-07 04:30N 37°57' E 023°38'0 0.0
2017-Dec-07 04:00N 37°57' E 023°38'0 0.0
2017-Dec-07 03:30N 37°57' E 023°38'0 0.0
2017-Dec-07 03:00N 37°57' E 023°38'0 0.0
2017-Dec-07 02:30N 37°57' E 023°38'0 0.0
2017-Dec-07 02:00N 37°57' E 023°38'0 0.0
2017-Dec-07 01:30N 37°57' E 023°38'0 0.0
2017-Dec-07 01:00N 37°57' E 023°38'0 0.0
2017-Dec-07 00:30N 37°57' E 023°38'0 0.0
2017-Dec-07 00:00N 37°57' E 023°38'0 0.0
2017-Dec-06 23:30N 37°57' E 023°38'0 0.0
2017-Dec-06 23:00N 37°57' E 023°38'0 0.0
2017-Dec-06 22:30N 37°57' E 023°38'0 0.0
2017-Dec-06 22:00N 37°57' E 023°38'0 0.4
2017-Dec-06 21:31N 37°57' E 023°38'714.5
2017-Dec-06 21:01N 37°50' E 023°40'  
2017-Dec-04 10:31N 37°10' E 025°18'1018.7
2017-Dec-04 10:00N 37°05' E 025°08'3 5.5
2017-Dec-04 09:30N 37°07' E 025°05'1223.5
2017-Dec-04 09:00N 37°14' E 024°54'1223.4
2017-Dec-04 08:30N 37°21' E 024°42'1223.4
2017-Dec-04 08:01N 37°28' E 024°30'1122.6
2017-Dec-04 07:30N 37°30' E 024°16'1223.2
2017-Dec-04 07:00N 37°35' E 024°02'1323.3
2017-Dec-04 06:26N 37°39' E 023°46'921.7
2017-Dec-04 06:00N 37°46' E 023°39'1020.2
2017-Dec-04 05:30N 37°56' E 023°38'1 1.5
2017-Dec-04 05:00N 37°57' E 023°38'0 0.0
2017-Dec-04 04:30N 37°57' E 023°38'0 0.0
2017-Dec-04 04:00N 37°57' E 023°38'0 0.0
2017-Dec-04 03:30N 37°57' E 023°38'0 0.0
2017-Dec-04 03:00N 37°57' E 023°38'0 0.0
2017-Dec-04 02:30N 37°57' E 023°38'0 0.0
2017-Dec-04 02:00N 37°57' E 023°38'0 0.0
2017-Dec-04 01:30N 37°57' E 023°38'0 0.0
2017-Dec-04 01:00N 37°57' E 023°38'0 0.0
2017-Dec-04 00:30N 37°57' E 023°38'0 0.0
2017-Dec-04 00:00N 37°57' E 023°38'0 0.0
2017-Dec-03 23:30N 37°57' E 023°38'0 0.0
2017-Dec-03 23:00N 37°57' E 023°38'0 0.0
2017-Dec-03 22:30N 37°57' E 023°38'0 0.0
2017-Dec-03 22:00N 37°57' E 023°38'1 1.1
2017-Dec-03 21:30N 37°56' E 023°38'918.8
2017-Dec-03 21:01N 37°47' E 023°41'1223.0
2017-Dec-03 20:30N 37°38' E 023°50'1521.5
2017-Dec-03 19:48N 37°30' E 024°06'723.2
2017-Dec-03 19:30N 37°30' E 024°14'1322.6
2017-Dec-03 18:57N 37°28' E 024°30'1123.5
2017-Dec-03 18:30N 37°22' E 024°41'1223.3
2017-Dec-03 18:00N 37°15' E 024°53'1223.2
2017-Dec-03 17:31N 37°08' E 025°04'4 6.2
2017-Dec-03 16:51N 37°05' E 025°08'516.0
2017-Dec-03 16:30N 37°10' E 025°12'917.0
2017-Dec-03 16:00N 37°06' E 025°22'5 9.1
2017-Dec-03 15:30N 37°03' E 025°18'1122.7
2017-Dec-03 15:01N 36°52' E 025°22'1122.7
2017-Dec-03 14:30N 36°41' E 025°25'1122.9
2017-Dec-03 14:01N 36°30' E 025°22'714.8
2017-Dec-03 13:30N 36°23' E 025°26'612.7
2017-Dec-03 13:01N 36°28' E 025°21'1223.6
2017-Dec-03 12:31N 36°39' E 025°17'5 9.9
2017-Dec-03 12:01N 36°44' E 025°14'1223.6
2017-Dec-03 11:31N 36°55' E 025°16'1122.5
2017-Dec-03 11:01N 37°06' E 025°20'4 8.1
2017-Dec-03 10:31N 37°10' E 025°18'917.8
2017-Dec-03 10:00N 37°05' E 025°08'510.7
2017-Dec-03 09:31N 37°08' E 025°03'1223.7
2017-Dec-03 09:01N 37°15' E 024°51'1223.2
2017-Dec-03 08:31N 37°22' E 024°39'1223.1
2017-Dec-03 08:01N 37°29' E 024°27'1122.9
2017-Dec-03 07:31N 37°29' E 024°13'1223.3
2017-Dec-03 06:59N 37°31' E 023°58'1522.9
2017-Dec-03 06:21N 37°40' E 023°43'822.4
2017-Dec-03 06:01N 37°47' E 023°39'1019.8
2017-Dec-03 05:30N 37°56' E 023°38'1 1.4
2017-Dec-03 05:00N 37°57' E 023°38'0 0.0
2017-Dec-03 04:30N 37°57' E 023°38'0 0.0
2017-Dec-03 04:00N 37°57' E 023°38'0 0.0
2017-Dec-03 03:30N 37°57' E 023°38'0 0.0
2017-Dec-03 03:00N 37°57' E 023°38'0 0.0
2017-Dec-03 02:30N 37°57' E 023°38'0 0.0
2017-Dec-03 02:00N 37°57' E 023°38'0 0.0
2017-Dec-03 01:30N 37°57' E 023°38'0 0.0
2017-Dec-03 01:00N 37°57' E 023°38'0 0.0
2017-Dec-03 00:30N 37°57' E 023°38'0 0.0
2017-Dec-03 00:00N 37°57' E 023°38'0 0.0
2017-Dec-02 23:30N 37°57' E 023°38'0 0.0
2017-Dec-02 23:00N 37°57' E 023°38'0 0.0
2017-Dec-02 22:30N 37°57' E 023°38'0 0.0
2017-Dec-02 22:00N 37°57' E 023°38'0 0.5
2017-Dec-02 21:31N 37°57' E 023°38'917.2
2017-Dec-02 21:01N 37°48' E 023°41'1223.5
2017-Dec-02 20:30N 37°39' E 023°50'1223.5
2017-Dec-02 20:00N 37°29' E 023°59'1223.4
2017-Dec-02 19:31N 37°30' E 024°14'1223.2
2017-Dec-02 19:00N 37°29' E 024°28'1223.8
2017-Dec-02 18:30N 37°22' E 024°40'1223.7
2017-Dec-02 18:01N 37°15' E 024°52'1223.3
2017-Dec-02 17:31N 37°08' E 025°04'5 7.4
2017-Dec-02 16:52N 37°05' E 025°09'515.0
2017-Dec-02 16:30N 37°10' E 025°12'917.1
2017-Dec-02 16:00N 37°06' E 025°22'4 7.8
2017-Dec-02 15:30N 37°04' E 025°18'1122.6
2017-Dec-02 15:01N 36°53' E 025°16'1122.2
2017-Dec-02 14:31N 36°42' E 025°14'1122.5
2017-Dec-02 14:01N 36°31' E 025°20'1019.1
2017-Dec-02 13:30N 36°23' E 025°26'4 8.2
2017-Dec-02 13:01N 36°26' E 025°23'1122.9
2017-Dec-02 12:31N 36°37' E 025°16'1122.2
2017-Dec-02 12:01N 36°48' E 025°14'1123.0
2017-Dec-02 11:31N 36°59' E 025°17'816.8
2017-Dec-02 11:01N 37°06' E 025°22'612.2
2017-Dec-02 10:31N 37°10' E 025°16'811.5
2017-Dec-02 09:50N 37°05' E 025°09'720.8
2017-Dec-02 09:31N 37°09' E 025°02'1223.2
2017-Dec-02 09:01N 37°16' E 024°50'1122.8
2017-Dec-02 08:31N 37°23' E 024°39'1122.8
2017-Dec-02 08:01N 37°29' E 024°27'1122.9
2017-Dec-02 07:31N 37°29' E 024°12'1122.9
2017-Dec-02 07:00N 37°31' E 023°58'1222.6
2017-Dec-02 06:30N 37°38' E 023°47'1122.3
2017-Dec-02 06:01N 37°47' E 023°39'1019.7
2017-Dec-02 05:30N 37°56' E 023°38'1 1.3
2017-Dec-02 05:00N 37°57' E 023°38'0 0.0
2017-Dec-02 04:30N 37°57' E 023°38'0 0.0
2017-Dec-02 04:00N 37°57' E 023°38'0 0.0
2017-Dec-02 03:30N 37°57' E 023°38'0 0.0
2017-Dec-02 03:00N 37°57' E 023°38'0 0.0
2017-Dec-02 02:30N 37°57' E 023°38'0 0.0
2017-Dec-02 02:00N 37°57' E 023°38'0 0.0
2017-Dec-02 01:30N 37°57' E 023°38'0 0.0
2017-Dec-02 01:00N 37°57' E 023°38'0 0.0
2017-Dec-02 00:30N 37°57' E 023°38'0 0.0
2017-Dec-02 00:00N 37°57' E 023°38'0 0.0
2017-Dec-01 23:30N 37°57' E 023°38'0 0.0
2017-Dec-01 23:00N 37°57' E 023°38'0 0.0
2017-Dec-01 22:30N 37°57' E 023°38'0 0.0
2017-Dec-01 22:00N 37°57' E 023°38'1 1.4
2017-Dec-01 21:31N 37°56' E 023°38'1020.2
2017-Dec-01 21:01N 37°47' E 023°42'1222.9
2017-Dec-01 20:30N 37°38' E 023°52'1223.0
2017-Dec-01 20:00N 37°30' E 024°02'1122.9
2017-Dec-01 19:30N 37°29' E 024°16'2221.9
2017-Dec-01 18:29N 37°20' E 024°42'1123.5
2017-Dec-01 18:01N 37°14' E 024°53'1223.2
2017-Dec-01 17:30N 37°07' E 025°05'3 6.0
2017-Dec-01 17:00N 37°05' E 025°08'  

Dump ship's entire track history